Terminal Aerodrome Forecast
Issued by NWS

Home | Current Version | Previous Version | Text Only | Print | Product List | Glossary On
Versions: 1 2 3 4 5 6 7 8 9 10 11 12 13 14 15 16 17 18 19 20 21 22 23
000
FTUS46 KSEW 102338
TAFBLI
TAF
KBLI 102338Z 1100/1124 15015G25KT P6SM -SHRA BKN018 OVC030
     FM110500 15013G22KT P6SM -SHRA OVC015
     FM111200 14011KT P6SM VCSH BKN020 OVC030
     FM112000 12008KT P6SM -RASN BKN025 BKN035=

USA.gov is the U.S. government's official web portal to all federal, state and local government web resources and services.